Time;durP1;ratioP1;P1;durP2;ratioP2;P2;SDS_P1;SDS_P2;PMS_P1;PMS_P2;Temp;Humidity;BMP_temperature;BMP_pressure;BME280_temperature;BME280_humidity;BME280_pressure;Samples;Min_cycle;Max_cycle;Signal;HPM_P1;HPM_P2
2022/04/30 00:02:19;;;;;;;10.45;6.55;;;6.60;82.00;;;;;;5079359;28;20040;-78
2022/04/30 00:04:46;;;;;;;8.55;6.93;;;6.60;82.10;;;;;;5079071;28;20039;-79
2022/04/30 00:07:16;;;;;;;10.85;6.93;;;6.60;82.00;;;;;;5095994;28;20044;-79
2022/04/30 00:09:43;;;;;;;11.02;6.70;;;6.60;82.10;;;;;;5095911;28;20491;-80
2022/04/30 00:12:09;;;;;;;11.32;6.68;;;6.50;82.30;;;;;;5079357;28;20558;-80
2022/04/30 00:14:36;;;;;;;9.40;6.15;;;6.60;82.30;;;;;;5095909;28;20051;-79
2022/04/30 00:17:02;;;;;;;13.63;5.75;;;6.60;82.40;;;;;;5078815;28;20047;-80
2022/04/30 00:19:29;;;;;;;9.50;6.63;;;6.60;82.50;;;;;;5095612;28;20039;-77
2022/04/30 00:21:56;;;;;;;13.93;6.78;;;6.60;82.50;;;;;;5095804;28;20093;-80
2022/04/30 00:24:22;;;;;;;9.88;6.90;;;6.60;82.70;;;;;;5095813;28;20131;-78
2022/04/30 00:26:48;;;;;;;11.98;6.65;;;6.60;82.60;;;;;;5095943;28;20050;-80
2022/04/30 00:29:14;;;;;;;10.02;6.15;;;6.70;82.30;;;;;;5095725;28;20495;-77
2022/04/30 00:31:40;;;;;;;13.23;6.47;;;6.70;82.20;;;;;;5078602;28;20095;-79
2022/04/30 00:34:06;;;;;;;10.98;6.93;;;6.70;82.30;;;;;;5100329;28;20044;-80
2022/04/30 00:36:32;;;;;;;8.20;6.68;;;6.70;82.40;;;;;;5102450;28;20085;-79
2022/04/30 00:38:58;;;;;;;13.57;7.15;;;6.80;82.50;;;;;;5101899;28;20039;-79
2022/04/30 00:41:24;;;;;;;11.77;7.25;;;6.80;82.40;;;;;;5085430;28;20126;-78
2022/04/30 00:43:54;;;;;;;9.85;6.93;;;6.80;82.60;;;;;;5085269;28;20112;-79
2022/04/30 00:46:23;;;;;;;10.98;7.47;;;6.90;82.40;;;;;;5102279;28;20044;-80
2022/04/30 00:48:50;;;;;;;10.05;6.93;;;6.90;82.50;;;;;;5085502;28;20046;-78
2022/04/30 00:51:20;;;;;;;9.90;6.97;;;7.00;82.50;;;;;;5085505;28;20073;-79
2022/04/30 00:53:52;;;;;;;11.23;7.30;;;7.00;82.60;;;;;;5102241;28;20119;-78
2022/04/30 00:56:29;;;;;;;14.10;7.60;;;7.00;82.70;;;;;;5102621;28;20040;-78
2022/04/30 00:58:56;;;;;;;9.82;5.90;;;7.10;82.50;;;;;;5102316;28;20043;-80
2022/04/30 01:01:24;;;;;;;10.52;7.00;;;7.10;82.70;;;;;;5102179;28;20499;-77
2022/04/30 01:03:50;;;;;;;9.13;6.88;;;7.10;82.60;;;;;;5085341;28;20039;-78
2022/04/30 01:06:15;;;;;;;7.97;6.60;;;7.20;82.70;;;;;;5085554;28;20036;-79
2022/04/30 01:08:41;;;;;;;11.23;6.45;;;7.20;82.70;;;;;;5085248;28;20032;-79
2022/04/30 01:11:07;;;;;;;11.88;6.72;;;7.20;82.70;;;;;;5085457;28;20079;-79
2022/04/30 01:13:35;;;;;;;10.57;7.07;;;7.30;82.70;;;;;;5102380;28;20044;-78
2022/04/30 01:16:06;;;;;;;10.07;6.35;;;7.30;82.70;;;;;;5085022;28;20118;-79
2022/04/30 01:18:36;;;;;;;9.98;7.05;;;7.40;82.60;;;;;;5068804;28;20502;-78
2022/04/30 01:21:10;;;;;;;9.02;6.88;;;7.40;82.70;;;;;;5101884;28;20488;-79
2022/04/30 01:23:36;;;;;;;11.45;6.93;;;7.40;82.80;;;;;;5102033;28;20050;-80
2022/04/30 01:26:03;;;;;;;9.32;7.00;;;7.50;82.80;;;;;;5102174;28;20036;-79
2022/04/30 01:28:29;;;;;;;10.50;7.05;;;7.50;82.70;;;;;;5084957;28;20488;-80
2022/04/30 01:30:55;;;;;;;9.48;6.28;;;7.50;82.70;;;;;;5098541;28;20055;-80
2022/04/30 01:38:56;;;;;;;12.88;6.47;;;7.60;82.50;;;;;;5098428;28;20051;-78
2022/04/30 01:41:22;;;;;;;9.93;6.30;;;7.70;82.60;;;;;;5098423;28;20128;-78
2022/04/30 01:43:49;;;;;;;10.98;7.32;;;7.70;82.50;;;;;;5081639;28;20075;-80
2022/04/30 01:46:15;;;;;;;10.23;6.38;;;7.80;82.50;;;;;;5093982;28;20470;-79
2022/04/30 01:48:41;;;;;;;10.60;6.78;;;7.80;82.50;;;;;;5078389;28;20040;-80
2022/04/30 01:51:06;;;;;;;11.23;6.70;;;7.80;82.50;;;;;;5095177;28;20036;-79
2022/04/30 01:53:32;;;;;;;13.10;6.30;;;7.80;82.50;;;;;;5095413;28;20395;-78
2022/04/30 01:55:59;;;;;;;8.15;5.78;;;7.80;82.50;;;;;;5078095;28;20472;-79
2022/04/30 01:58:26;;;;;;;6.40;5.40;;;7.80;82.60;;;;;;5078856;28;20083;-78
2022/04/30 02:00:53;;;;;;;8.50;6.15;;;7.90;82.50;;;;;;5095110;28;20373;-80
2022/04/30 02:03:19;;;;;;;10.60;6.22;;;7.80;82.40;;;;;;5095161;28;20122;-79
2022/04/30 02:05:45;;;;;;;10.27;5.53;;;7.90;82.60;;;;;;5094639;28;20451;-80
2022/04/30 02:08:12;;;;;;;8.93;5.53;;;7.90;82.70;;;;;;5077842;28;20393;-78
2022/04/30 02:10:40;;;;;;;6.57;4.47;;;7.90;82.80;;;;;;5060887;28;20089;-80
2022/04/30 02:13:07;;;;;;;9.15;5.15;;;8.00;82.80;;;;;;5094583;28;20126;-78
2022/04/30 02:15:34;;;;;;;7.95;4.97;;;8.00;82.80;;;;;;5060948;28;20051;-79
2022/04/30 02:18:03;;;;;;;8.65;5.25;;;8.00;83.00;;;;;;5060905;28;20048;-78
2022/04/30 02:20:33;;;;;;;7.13;4.97;;;8.00;83.10;;;;;;5094699;28;20048;-79
2022/04/30 02:23:04;;;;;;;9.10;4.70;;;8.00;82.90;;;;;;5094330;28;20047;-79
2022/04/30 02:25:31;;;;;;;8.15;4.68;;;8.10;82.90;;;;;;5094398;28;20039;-79
2022/04/30 02:28:04;;;;;;;7.40;5.25;;;8.00;82.90;;;;;;5094286;28;20040;-78
2022/04/30 02:30:31;;;;;;;7.35;5.03;;;8.10;82.80;;;;;;5094144;28;20052;-77
2022/04/30 02:33:00;;;;;;;8.88;5.50;;;8.10;82.80;;;;;;5077647;28;20132;-79
2022/04/30 02:35:28;;;;;;;4.75;4.28;;;8.00;82.80;;;;;;5094798;28;20044;-79
2022/04/30 02:37:56;;;;;;;9.65;6.15;;;8.00;82.80;;;;;;5094648;28;20048;-78
2022/04/30 02:40:24;;;;;;;8.57;5.40;;;8.10;82.80;;;;;;5094313;28;20461;-79
2022/04/30 02:42:51;;;;;;;8.82;5.95;;;8.10;82.80;;;;;;5094612;28;20044;-79
2022/04/30 02:45:18;;;;;;;7.13;5.85;;;8.10;82.80;;;;;;5077285;28;20051;-79
2022/04/30 02:47:46;;;;;;;8.68;5.82;;;8.10;82.70;;;;;;5094033;28;20082;-78
2022/04/30 02:50:15;;;;;;;8.32;5.35;;;8.10;82.80;;;;;;5060700;28;20108;-77
2022/04/30 02:52:45;;;;;;;10.57;6.13;;;8.00;82.80;;;;;;5077058;28;20036;-78
2022/04/30 02:55:12;;;;;;;8.65;5.78;;;8.10;82.90;;;;;;5094005;28;20043;-80
2022/04/30 02:59:53;;;;;;;5.97;4.90;;;8.10;83.00;;;;;;5076679;28;20044;-78
2022/04/30 03:00:40;;;;;;;9.90;5.45;;;8.10;82.80;;;;;;5079873;28;20124;-80
2022/04/30 03:03:07;;;;;;;9.38;4.90;;;8.10;82.70;;;;;;5093954;28;20048;-80
2022/04/30 03:05:34;;;;;;;8.02;4.72;;;8.10;82.50;;;;;;5093897;28;20446;-78
2022/04/30 03:08:06;;;;;;;8.57;5.20;;;8.10;82.40;;;;;;5093686;28;20496;-79
2022/04/30 03:10:32;;;;;;;10.43;5.75;;;8.00;82.20;;;;;;5093579;28;20035;-79
2022/04/30 03:12:58;;;;;;;8.77;5.13;;;8.10;82.10;;;;;;5076747;28;20077;-78
2022/04/30 03:15:27;;;;;;;8.25;5.22;;;8.10;82.00;;;;;;5076772;28;20515;-80
2022/04/30 03:23:21;;;;;;;8.68;5.40;;;8.00;81.90;;;;;;5093394;28;20093;-79
2022/04/30 03:25:47;;;;;;;11.35;6.22;;;8.00;81.90;;;;;;5093249;28;20047;-81
2022/04/30 03:28:13;;;;;;;6.88;5.13;;;7.90;82.10;;;;;;5093152;28;20048;-79
2022/04/30 03:30:38;;;;;;;8.75;5.95;;;7.90;82.00;;;;;;5056031;28;20059;-80
2022/04/30 03:33:04;;;;;;;10.00;5.50;;;7.90;82.00;;;;;;5072373;28;20045;-79
2022/04/30 03:35:30;;;;;;;8.43;5.53;;;7.80;82.30;;;;;;5072736;28;20033;-77
2022/04/30 03:37:55;;;;;;;11.75;5.60;;;7.90;82.10;;;;;;5072936;28;20040;-79
2022/04/30 03:40:22;;;;;;;9.73;6.45;;;7.80;82.10;;;;;;5056422;28;20048;-79
2022/04/30 03:42:48;;;;;;;9.60;5.55;;;7.80;82.20;;;;;;5072816;28;20036;-80
2022/04/30 03:45:14;;;;;;;8.18;5.68;;;7.80;82.20;;;;;;5073274;28;20106;-81
2022/04/30 03:47:41;;;;;;;7.40;6.13;;;7.80;82.10;;;;;;5061548;28;21175;-80
2022/04/30 03:50:07;;;;;;;9.48;5.95;;;7.80;82.00;;;;;;5062163;28;20043;-78
2022/04/30 03:52:34;;;;;;;11.77;6.20;;;7.80;82.10;;;;;;5063915;28;20472;-80
2022/04/30 03:54:59;;;;;;;6.80;5.57;;;7.80;82.00;;;;;;5066109;28;20048;-82
2022/04/30 03:57:28;;;;;;;8.70;6.40;;;7.80;82.10;;;;;;5049512;28;20042;-80
2022/04/30 03:59:54;;;;;;;11.05;6.82;;;7.80;82.30;;;;;;5047531;28;20040;-80
2022/04/30 04:02:20;;;;;;;8.70;6.20;;;7.80;82.60;;;;;;5083901;28;20553;-79
2022/04/30 04:04:46;;;;;;;13.10;6.72;;;7.70;82.40;;;;;;5066626;28;20417;-79
2022/04/30 04:07:12;;;;;;;12.05;6.95;;;7.70;82.60;;;;;;5082231;28;20052;-79
2022/04/30 04:09:37;;;;;;;11.63;7.07;;;7.70;82.50;;;;;;5058094;28;20377;-80
2022/04/30 04:12:03;;;;;;;10.30;7.35;;;7.70;82.70;;;;;;5092159;28;20036;-80
2022/04/30 04:19:58;;;;;;;11.10;6.93;;;7.70;82.90;;;;;;5077729;28;20131;-79
2022/04/30 04:22:23;;;;;;;16.98;7.65;;;7.70;82.90;;;;;;5058476;28;20079;-80
2022/04/30 04:27:33;;;;;;;10.90;6.90;;;7.70;83.00;;;;;;5077269;28;20052;-80
2022/04/30 04:30:00;;;;;;;8.73;6.90;;;7.70;83.20;;;;;;5073303;28;20041;-79
2022/04/30 04:32:26;;;;;;;9.32;7.72;;;7.70;83.30;;;;;;5088494;28;20108;-80
2022/04/30 04:34:51;;;;;;;10.45;7.75;;;7.70;83.40;;;;;;5103162;28;20494;-79
2022/04/30 04:37:17;;;;;;;9.45;7.00;;;7.60;83.80;;;;;;5099134;28;20074;-83
2022/04/30 04:39:43;;;;;;;12.75;7.65;;;7.70;84.00;;;;;;5101009;28;20039;-83
2022/04/30 04:42:09;;;;;;;11.52;7.53;;;7.70;83.70;;;;;;5072201;28;20155;-82
2022/04/30 04:44:34;;;;;;;10.00;6.88;;;7.70;84.00;;;;;;5082660;28;20078;-83
2022/04/30 04:47:01;;;;;;;10.18;7.63;;;7.70;84.30;;;;;;5069514;28;20563;-79
2022/04/30 04:49:27;;;;;;;11.27;7.93;;;7.70;84.10;;;;;;5072429;27;20047;-81
2022/04/30 04:51:53;;;;;;;10.55;7.15;;;7.60;84.40;;;;;;5077982;28;20054;-82
2022/04/30 04:54:19;;;;;;;8.68;7.75;;;7.60;84.20;;;;;;5090312;28;20054;-82
2022/04/30 04:56:45;;;;;;;11.25;7.65;;;7.60;84.40;;;;;;5097231;28;20036;-81
2022/04/30 04:59:13;;;;;;;11.48;7.32;;;7.60;84.80;;;;;;5099453;28;20083;-82
2022/04/30 05:01:40;;;;;;;13.98;7.57;;;7.60;84.40;;;;;;5074139;28;20047;-80
2022/04/30 05:04:08;;;;;;;12.73;8.32;;;7.60;84.60;;;;;;5089543;28;20043;-81
2022/04/30 05:06:34;;;;;;;8.90;7.28;;;7.60;84.20;;;;;;5081998;28;20039;-81
2022/04/30 05:09:00;;;;;;;11.18;8.32;;;7.60;84.40;;;;;;5067366;28;20043;-80
2022/04/30 05:11:26;;;;;;;10.20;8.68;;;7.60;84.30;;;;;;5063370;28;20067;-82
2022/04/30 05:13:52;;;;;;;11.60;8.18;;;7.60;84.40;;;;;;5061794;28;20324;-79
2022/04/30 05:16:17;;;;;;;12.05;8.07;;;7.70;84.40;;;;;;5068469;28;20043;-81
2022/04/30 05:18:43;;;;;;;12.75;8.23;;;7.70;84.10;;;;;;5098424;28;20050;-81
2022/04/30 05:21:09;;;;;;;12.57;8.35;;;7.70;84.20;;;;;;5084786;27;20047;-81
2022/04/30 05:23:36;;;;;;;14.02;8.63;;;7.70;84.40;;;;;;5083056;27;20047;-82
2022/04/30 05:26:01;;;;;;;12.13;8.85;;;7.70;84.50;;;;;;5065199;27;20047;-83
2022/04/30 05:28:27;;;;;;;19.15;8.95;;;7.70;84.40;;;;;;5082429;27;20048;-81
2022/04/30 05:30:53;;;;;;;13.48;8.10;;;7.80;84.90;;;;;;5105719;27;20098;-81
2022/04/30 05:33:18;;;;;;;13.02;8.75;;;7.80;84.90;;;;;;5068462;27;20047;-81
2022/04/30 05:35:44;;;;;;;15.15;9.05;;;7.80;84.80;;;;;;5087090;27;20135;-81
2022/04/30 05:38:10;;;;;;;11.45;10.07;;;7.80;84.70;;;;;;5071452;27;20051;-81
2022/04/30 05:40:36;;;;;;;12.70;8.90;;;7.80;84.40;;;;;;5102344;27;20054;-81
2022/04/30 05:43:03;;;;;;;12.60;9.15;;;7.80;84.60;;;;;;5092354;27;20095;-82
2022/04/30 05:45:29;;;;;;;17.33;9.88;;;7.80;84.90;;;;;;5105918;27;20039;-81
2022/04/30 05:47:55;;;;;;;11.20;8.82;;;7.80;84.60;;;;;;5075440;27;20049;-81
2022/04/30 05:50:20;;;;;;;14.70;10.55;;;7.80;84.80;;;;;;5106588;27;20031;-82
2022/04/30 05:52:46;;;;;;;16.33;9.02;;;7.80;85.00;;;;;;5071287;28;20054;-82
2022/04/30 05:55:12;;;;;;;13.40;9.77;;;7.80;85.20;;;;;;5072742;27;20134;-83
2022/04/30 05:57:37;;;;;;;11.23;9.68;;;7.80;84.80;;;;;;5091097;27;20828;-82
2022/04/30 06:00:05;;;;;;;14.85;10.25;;;7.80;85.50;;;;;;5074394;27;20127;-82
2022/04/30 06:02:30;;;;;;;19.98;10.63;;;7.80;85.30;;;;;;5101937;27;20133;-82
2022/04/30 06:04:56;;;;;;;12.73;8.15;;;7.90;85.30;;;;;;5084978;27;20691;-81
2022/04/30 06:07:22;;;;;;;13.38;9.38;;;8.00;85.80;;;;;;5084800;27;20445;-81
2022/04/30 06:09:47;;;;;;;16.25;11.10;;;8.00;85.40;;;;;;5085074;27;20130;-82
2022/04/30 06:12:13;;;;;;;14.68;9.77;;;8.10;85.20;;;;;;5101570;27;20502;-80
2022/04/30 06:14:39;;;;;;;14.32;10.10;;;8.30;85.40;;;;;;5118467;27;20039;-80
2022/04/30 06:17:04;;;;;;;12.85;9.45;;;8.50;85.50;;;;;;5101891;27;20037;-79
2022/04/30 06:19:30;;;;;;;13.98;9.30;;;8.60;84.90;;;;;;5118742;27;20046;-83
2022/04/30 06:21:56;;;;;;;14.82;9.15;;;8.70;84.80;;;;;;5118572;27;20474;-83
2022/04/30 06:24:21;;;;;;;11.10;8.63;;;8.80;84.60;;;;;;5101097;27;20087;-82
2022/04/30 06:26:47;;;;;;;13.52;9.38;;;8.90;84.50;;;;;;5101588;27;20126;-82
2022/04/30 06:29:13;;;;;;;11.25;9.18;;;9.00;84.10;;;;;;5101705;27;20491;-81
2022/04/30 06:31:40;;;;;;;15.38;9.32;;;9.00;83.80;;;;;;5100304;27;20495;-81
2022/04/30 06:34:05;;;;;;;12.15;9.48;;;9.00;83.80;;;;;;5118599;27;20035;-79
2022/04/30 06:36:31;;;;;;;13.95;9.93;;;9.10;83.70;;;;;;5117238;27;20391;-82
2022/04/30 06:38:57;;;;;;;16.33;10.73;;;9.10;83.70;;;;;;5117737;27;20039;-81
2022/04/30 06:41:23;;;;;;;13.40;9.60;;;9.10;83.80;;;;;;5100396;27;20122;-79
2022/04/30 06:43:50;;;;;;;17.17;10.13;;;9.10;83.80;;;;;;5100678;27;20130;-81
2022/04/30 06:46:16;;;;;;;12.20;9.80;;;9.10;83.80;;;;;;5099974;27;20134;-80
2022/04/30 06:48:42;;;;;;;11.65;10.00;;;9.20;83.70;;;;;;5100287;27;20043;-82
2022/04/30 06:51:07;;;;;;;13.38;10.30;;;9.20;83.70;;;;;;5117210;27;20415;-79
2022/04/30 06:59:09;;;;;;;17.45;10.05;;;9.30;83.80;;;;;;5117080;27;20046;-81
2022/04/30 07:01:52;;;;;;;14.13;9.73;;;9.40;83.80;;;;;;5117219;27;20086;-80
2022/04/30 07:04:18;;;;;;;15.27;10.20;;;9.40;83.60;;;;;;5102492;27;20512;-79
2022/04/30 07:06:46;;;;;;;17.25;10.40;;;9.50;83.50;;;;;;5100214;27;20039;-81
2022/04/30 07:09:13;;;;;;;17.00;10.07;;;9.50;83.50;;;;;;5082969;27;20043;-79
2022/04/30 07:11:42;;;;;;;16.88;9.85;;;9.50;83.60;;;;;;5099961;27;20042;-81
2022/04/30 07:14:09;;;;;;;15.82;9.93;;;9.50;83.50;;;;;;5099779;27;20031;-82
2022/04/30 07:16:35;;;;;;;16.23;9.88;;;9.50;83.30;;;;;;5099734;27;20035;-80
2022/04/30 07:19:01;;;;;;;12.30;8.85;;;9.50;82.90;;;;;;5099766;27;20126;-80
2022/04/30 07:21:29;;;;;;;14.27;8.40;;;9.50;82.80;;;;;;5116902;27;20121;-80
2022/04/30 07:23:55;;;;;;;11.52;8.55;;;9.50;82.50;;;;;;5099649;27;20043;-79
2022/04/30 07:26:21;;;;;;;10.98;7.32;;;9.60;82.00;;;;;;5099571;27;20039;-79
2022/04/30 07:28:46;;;;;;;11.20;7.57;;;9.50;81.90;;;;;;5099754;27;20126;-79
2022/04/30 07:31:12;;;;;;;8.10;6.13;;;9.60;82.00;;;;;;5082537;27;20051;-81
2022/04/30 07:33:38;;;;;;;11.30;7.20;;;9.70;82.20;;;;;;5116698;27;20039;-80
2022/04/30 07:36:05;;;;;;;8.80;6.88;;;9.70;82.20;;;;;;5116362;27;20039;-82
2022/04/30 07:38:31;;;;;;;12.38;5.80;;;9.60;82.40;;;;;;5099418;27;20084;-82
2022/04/30 07:40:56;;;;;;;11.38;7.10;;;9.60;82.20;;;;;;5099362;27;20035;-79
2022/04/30 07:43:22;;;;;;;9.15;6.45;;;9.50;82.10;;;;;;5115275;27;20069;-81
2022/04/30 07:45:48;;;;;;;8.50;6.03;;;9.60;82.40;;;;;;5116206;27;20130;-78
2022/04/30 07:48:14;;;;;;;8.30;5.40;;;9.60;82.40;;;;;;5116100;27;20039;-82
2022/04/30 07:50:41;;;;;;;6.90;4.75;;;9.60;82.50;;;;;;5082253;27;20091;-83
2022/04/30 07:53:08;;;;;;;11.07;5.93;;;9.70;82.30;;;;;;5099322;27;20414;-80
2022/04/30 07:55:34;;;;;;;7.03;4.10;;;9.70;81.90;;;;;;5116034;27;20035;-82
2022/04/30 07:58:02;;;;;;;8.95;4.40;;;9.80;81.60;;;;;;5116419;27;20399;-83
2022/04/30 08:00:28;;;;;;;6.53;4.28;;;9.80;80.60;;;;;;5116168;27;20039;-80
2022/04/30 08:02:55;;;;;;;10.75;4.95;;;9.90;79.80;;;;;;5115940;27;20047;-82
2022/04/30 08:05:22;;;;;;;12.93;6.32;;;10.00;79.30;;;;;;5099112;27;20043;-81
2022/04/30 08:07:48;;;;;;;8.95;6.03;;;10.10;79.00;;;;;;5115701;27;20047;-80
2022/04/30 08:10:13;;;;;;;7.75;5.75;;;10.10;79.10;;;;;;5115708;27;20126;-82
2022/04/30 08:12:39;;;;;;;12.52;7.45;;;10.20;79.10;;;;;;5098897;27;20128;-82
2022/04/30 08:15:05;;;;;;;8.32;6.30;;;10.30;79.40;;;;;;5098992;27;20035;-82
2022/04/30 08:17:31;;;;;;;12.13;7.63;;;10.40;79.70;;;;;;5098842;27;20077;-79
2022/04/30 08:19:57;;;;;;;9.70;7.18;;;10.40;79.70;;;;;;5098855;27;20074;-82
2022/04/30 08:22:23;;;;;;;10.13;7.28;;;10.50;79.60;;;;;;5081768;28;20050;-81
2022/04/30 08:24:48;;;;;;;10.75;7.85;;;10.50;79.50;;;;;;5115618;28;20039;-80
2022/04/30 08:27:14;;;;;;;11.40;6.95;;;10.50;79.30;;;;;;5098824;27;20104;-81
2022/04/30 08:29:40;;;;;;;10.27;6.60;;;10.60;78.80;;;;;;5116052;27;20047;-80
2022/04/30 08:32:06;;;;;;;10.15;6.18;;;10.60;78.60;;;;;;5098487;28;20062;-80
2022/04/30 08:34:32;;;;;;;11.52;7.90;;;10.60;77.90;;;;;;5115505;28;20039;-78
2022/04/30 08:37:01;;;;;;;9.93;7.18;;;10.60;77.90;;;;;;5115748;28;20031;-83
2022/04/30 08:39:27;;;;;;;14.27;8.55;;;10.70;78.20;;;;;;5098459;27;20073;-80
2022/04/30 08:41:53;;;;;;;8.35;6.72;;;10.70;78.50;;;;;;5098425;28;20071;-82
2022/04/30 08:44:19;;;;;;;8.55;6.57;;;10.80;78.80;;;;;;5098433;28;20039;-79
2022/04/30 08:46:46;;;;;;;10.13;6.72;;;10.80;78.60;;;;;;5115406;28;20039;-82
2022/04/30 08:49:12;;;;;;;10.52;6.55;;;10.80;78.30;;;;;;5098304;28;20043;-82
2022/04/30 08:51:38;;;;;;;7.20;5.68;;;10.90;78.00;;;;;;5098245;28;20035;-83
2022/04/30 08:54:04;;;;;;;8.60;5.47;;;11.00;77.70;;;;;;5099133;27;20552;-81
2022/04/30 08:56:30;;;;;;;7.30;4.80;;;11.00;76.70;;;;;;5119530;27;20035;-83
2022/04/30 08:59:04;;;;;;;8.02;4.63;;;11.00;75.90;;;;;;5119431;27;20042;-81
2022/04/30 09:01:53;;;;;;;8.52;5.22;;;11.00;75.90;;;;;;5102437;27;20045;-81
2022/04/30 09:04:19;;;;;;;7.25;4.88;;;11.00;75.80;;;;;;5088565;27;20050;-80
2022/04/30 09:06:47;;;;;;;7.13;5.28;;;11.00;75.30;;;;;;5119653;27;20125;-78
2022/04/30 09:09:24;;;;;;;6.55;5.18;;;11.00;75.10;;;;;;5119269;27;20203;-81
2022/04/30 09:11:53;;;;;;;7.15;5.78;;;10.90;74.80;;;;;;5119237;27;20041;-80
2022/04/30 09:14:27;;;;;;;7.90;6.03;;;11.00;75.00;;;;;;5119426;27;20035;-81
2022/04/30 09:17:13;;;;;;;9.10;5.65;;;11.00;75.10;;;;;;5119318;27;20041;-79
2022/04/30 09:19:51;;;;;;;6.82;5.25;;;10.90;74.90;;;;;;5119331;27;20039;-79
2022/04/30 09:22:33;;;;;;;8.88;5.90;;;10.90;74.40;;;;;;5119074;27;20035;-79
2022/04/30 09:25:05;;;;;;;7.88;5.80;;;10.90;74.00;;;;;;5102248;27;20111;-78
2022/04/30 09:27:31;;;;;;;8.20;5.65;;;10.90;73.90;;;;;;5102264;27;20042;-81
2022/04/30 09:29:58;;;;;;;9.63;5.28;;;10.80;74.10;;;;;;5101664;27;20042;-81
2022/04/30 09:32:26;;;;;;;8.60;6.30;;;10.90;74.00;;;;;;5102130;27;20126;-79
2022/04/30 09:37:48;;;;;;;8.52;5.93;;;10.90;74.10;;;;;;5118884;27;20062;-81
2022/04/30 09:40:14;;;;;;;9.10;6.10;;;10.90;74.30;;;;;;5086339;27;20079;-79
2022/04/30 09:42:50;;;;;;;7.95;6.28;;;10.90;74.30;;;;;;5101707;27;20081;-80
2022/04/30 09:45:30;;;;;;;11.13;6.30;;;10.90;74.00;;;;;;5101644;27;20039;-79
2022/04/30 09:47:58;;;;;;;10.25;6.68;;;11.00;73.90;;;;;;5118459;27;20043;-81
2022/04/30 09:55:55;;;;;;;8.77;6.32;;;11.00;73.40;;;;;;5104031;27;20035;-79
2022/04/30 09:58:24;;;;;;;11.57;8.02;;;10.90;73.80;;;;;;5118643;27;20122;-79
2022/04/30 10:00:57;;;;;;;11.52;8.18;;;10.90;74.10;;;;;;5118245;27;20039;-78
2022/04/30 10:03:29;;;;;;;8.85;6.25;;;11.00;74.50;;;;;;5118311;27;20039;-81
2022/04/30 10:06:03;;;;;;;8.02;6.20;;;10.90;74.80;;;;;;5100204;27;20039;-82
2022/04/30 10:08:37;;;;;;;;;;;10.90;74.70;;;;;;5101684;27;20039;-81
2022/04/30 10:11:54;;;;;;;13.10;7.82;;;10.90;75.40;;;;;;5118042;27;20014;-81
2022/04/30 10:14:50;;;;;;;8.43;5.95;;;10.80;76.20;;;;;;5046261;27;20047;-80
2022/04/30 10:17:17;;;;;;;8.27;5.85;;;10.70;76.10;;;;;;5118044;27;20047;-79
2022/04/30 10:20:01;;;;;;;9.40;6.28;;;10.60;76.00;;;;;;5084671;27;20042;-79
2022/04/30 10:22:27;;;;;;;8.27;5.90;;;10.50;76.30;;;;;;5101102;27;20039;-79
2022/04/30 10:24:57;;;;;;;11.18;6.35;;;10.50;76.60;;;;;;5084081;27;20039;-81
2022/04/30 10:27:38;;;;;;;10.10;6.55;;;10.40;76.60;;;;;;5117951;27;20042;-82
2022/04/30 10:30:07;;;;;;;8.15;5.90;;;10.40;77.00;;;;;;5117467;27;20122;-81
2022/04/30 10:32:39;;;;;;;5.07;4.43;;;10.40;77.00;;;;;;5101177;27;20383;-80
2022/04/30 10:35:05;;;;;;;6.20;5.20;;;10.30;77.10;;;;;;5100790;27;20105;-81
2022/04/30 10:37:35;;;;;;;6.93;5.53;;;10.40;76.90;;;;;;5117645;27;20047;-81
2022/04/30 10:40:04;;;;;;;11.63;6.78;;;10.30;76.90;;;;;;5117433;27;20047;-78
2022/04/30 10:42:40;;;;;;;9.02;6.10;;;10.30;77.20;;;;;;5117680;27;20035;-79
2022/04/30 10:45:11;;;;;;;13.45;7.72;;;10.40;77.80;;;;;;5100476;27;20043;-80
2022/04/30 10:47:53;;;;;;;10.10;8.23;;;10.40;78.10;;;;;;5117316;27;20487;-79
2022/04/30 10:50:19;;;;;;;10.00;7.88;;;10.50;78.70;;;;;;5100342;27;20114;-79
2022/04/30 10:52:49;;;;;;;9.80;8.02;;;10.50;78.70;;;;;;5117195;27;20126;-82
2022/04/30 10:55:19;;;;;;;9.93;6.68;;;10.50;79.10;;;;;;5100263;27;20035;-80
2022/04/30 10:57:45;;;;;;;8.23;6.43;;;10.50;79.20;;;;;;5100120;27;20088;-81
2022/04/30 11:00:13;;;;;;;8.70;6.35;;;10.60;79.20;;;;;;5117348;27;20399;-79
2022/04/30 11:02:39;;;;;;;7.55;6.55;;;10.60;79.20;;;;;;5100200;27;20039;-79
2022/04/30 11:05:24;;;;;;;9.50;6.28;;;10.70;79.00;;;;;;5117001;27;20495;-81
2022/04/30 11:07:51;;;;;;;6.88;5.93;;;10.70;78.20;;;;;;5116927;27;20043;-79
2022/04/30 11:10:17;;;;;;;12.05;6.30;;;10.80;77.70;;;;;;5117179;27;20387;-81
2022/04/30 11:12:44;;;;;;;9.18;5.95;;;10.90;77.90;;;;;;5100161;27;20090;-79
2022/04/30 11:15:13;;;;;;;10.38;6.53;;;11.00;77.40;;;;;;5116771;27;20039;-79
2022/04/30 11:17:46;;;;;;;11.70;6.55;;;11.10;77.00;;;;;;5116741;27;20491;-78
2022/04/30 11:20:20;;;;;;;7.25;6.20;;;11.20;76.90;;;;;;5099969;27;20130;-78
2022/04/30 11:22:56;;;;;;;7.43;6.22;;;11.40;76.90;;;;;;5099789;27;20042;-78
2022/04/30 11:25:22;;;;;;;10.70;7.28;;;11.40;76.10;;;;;;5116652;27;20039;-80
2022/04/30 11:27:48;;;;;;;8.20;6.28;;;11.50;76.10;;;;;;5116565;27;20043;-79
2022/04/30 11:30:14;;;;;;;10.30;6.85;;;11.60;75.80;;;;;;5082462;27;20398;-80
2022/04/30 11:32:43;;;;;;;9.80;7.45;;;11.70;75.80;;;;;;5116792;27;20468;-78
2022/04/30 11:35:08;;;;;;;12.77;7.20;;;11.80;75.20;;;;;;5099968;27;20483;-82
2022/04/30 11:37:38;;;;;;;11.60;8.30;;;11.90;75.30;;;;;;5082615;27;20041;-82
2022/04/30 11:40:06;;;;;;;9.82;6.60;;;11.90;75.20;;;;;;5099267;27;20041;-80
2022/04/30 11:42:31;;;;;;;11.10;7.50;;;11.80;74.40;;;;;;5116485;27;20502;-80
2022/04/30 11:44:57;;;;;;;12.80;8.32;;;11.70;73.60;;;;;;5116311;27;20031;-80
2022/04/30 11:47:24;;;;;;;10.40;8.10;;;11.70;73.80;;;;;;5116130;27;20059;-79
2022/04/30 11:49:50;;;;;;;9.55;7.25;;;11.60;73.80;;;;;;5116128;27;20056;-79
2022/04/30 11:52:16;;;;;;;10.60;7.78;;;11.50;74.20;;;;;;5116106;27;20079;-82
2022/04/30 11:54:42;;;;;;;15.75;7.80;;;11.50;74.50;;;;;;5099499;27;20092;-81
2022/04/30 11:57:08;;;;;;;9.07;8.00;;;11.50;74.70;;;;;;5098987;27;20043;-79
2022/04/30 11:59:41;;;;;;;12.50;8.88;;;11.50;74.50;;;;;;5116228;27;20035;-80
2022/04/30 12:02:09;;;;;;;10.15;7.18;;;11.50;74.70;;;;;;5115978;27;20104;-79
2022/04/30 12:04:36;;;;;;;10.55;7.30;;;11.50;74.40;;;;;;5099072;27;20035;-80
2022/04/30 12:07:06;;;;;;;9.75;6.90;;;11.50;74.20;;;;;;5099165;27;20049;-81
2022/04/30 12:09:38;;;;;;;13.80;8.55;;;11.40;74.40;;;;;;5116136;27;20046;-79
2022/04/30 12:12:24;;;;;;;9.15;6.07;;;11.40;74.50;;;;;;5115781;27;20047;-82
2022/04/30 12:14:51;;;;;;;6.68;5.55;;;11.40;74.30;;;;;;5085538;27;20050;-80
2022/04/30 12:17:18;;;;;;;6.00;4.68;;;11.40;74.00;;;;;;5099063;27;20499;-79
2022/04/30 12:25:15;;;;;;;6.78;5.85;;;11.40;72.80;;;;;;5115916;28;20043;-79
2022/04/30 12:28:06;;;;;;;8.23;6.00;;;11.40;72.60;;;;;;5099001;28;20066;-81
2022/04/30 12:30:33;;;;;;;7.32;5.43;;;11.40;72.60;;;;;;5097909;27;20525;-81
2022/04/30 12:33:06;;;;;;;5.22;4.07;;;11.40;72.80;;;;;;5115641;28;20035;-81
2022/04/30 12:35:34;;;;;;;5.50;3.70;;;11.40;72.50;;;;;;5115614;28;20071;-82
2022/04/30 12:38:06;;;;;;;4.82;4.32;;;11.40;71.40;;;;;;5115864;28;20502;-79
2022/04/30 12:40:33;;;;;;;6.78;4.43;;;11.40;71.40;;;;;;5115486;28;20050;-79
2022/04/30 12:42:59;;;;;;;8.45;4.75;;;11.40;71.50;;;;;;5098446;28;20499;-80
2022/04/30 12:45:25;;;;;;;8.82;5.43;;;11.40;71.00;;;;;;5115544;28;20039;-78
2022/04/30 12:47:52;;;;;;;9.65;6.00;;;11.40;71.20;;;;;;5115373;28;20039;-80
2022/04/30 12:50:19;;;;;;;8.80;6.05;;;11.40;71.30;;;;;;5098928;28;20114;-81
2022/04/30 12:52:44;;;;;;;9.52;6.15;;;11.40;71.20;;;;;;5115436;28;20117;-83
2022/04/30 12:55:11;;;;;;;8.05;6.82;;;11.40;71.40;;;;;;5115719;28;20613;-83
2022/04/30 12:57:38;;;;;;;8.93;6.97;;;11.40;71.60;;;;;;5115547;28;20078;-82
2022/04/30 13:00:05;;;;;;;7.28;6.35;;;11.40;71.60;;;;;;5098723;28;20086;-81
2022/04/30 13:02:34;;;;;;;8.55;7.15;;;11.40;71.60;;;;;;5081644;28;20135;-80
2022/04/30 13:04:59;;;;;;;9.40;7.20;;;11.40;71.80;;;;;;5098373;28;20551;-82
2022/04/30 13:07:27;;;;;;;9.32;7.70;;;11.40;71.90;;;;;;5081847;28;20043;-80
2022/04/30 13:15:26;;;;;;;12.98;8.07;;;11.50;72.20;;;;;;5101060;28;20050;-82
2022/04/30 13:17:55;;;;;;;9.18;7.25;;;11.50;72.80;;;;;;5115580;28;20148;-79
2022/04/30 13:20:22;;;;;;;10.98;7.80;;;11.60;72.80;;;;;;5115398;28;20126;-79
2022/04/30 13:22:49;;;;;;;8.65;7.13;;;11.60;72.80;;;;;;5098441;28;20084;-81
2022/04/30 13:25:16;;;;;;;11.20;6.65;;;11.60;72.60;;;;;;5115576;28;20047;-79
2022/04/30 13:27:42;;;;;;;10.90;7.75;;;11.70;72.40;;;;;;5081768;28;20109;-83
2022/04/30 13:30:09;;;;;;;7.85;7.03;;;11.70;72.40;;;;;;5114815;28;20031;-81
2022/04/30 13:32:34;;;;;;;11.43;7.45;;;11.80;73.00;;;;;;5098078;28;20096;-80
2022/04/30 13:35:00;;;;;;;9.95;6.80;;;11.90;73.10;;;;;;5098513;28;20043;-81
2022/04/30 13:37:26;;;;;;;13.27;6.93;;;12.00;72.80;;;;;;5097971;28;20038;-81